sensor_id;sensor_type;location;lat;lon;timestamp;P1;durP1;ratioP1;P2;durP2;ratioP2
17953;SDS011;9102;53.548;9.926;2023-07-29T00:01:49;5.85;;;4.13;;
17953;SDS011;9102;53.548;9.926;2023-07-29T00:04:16;6.75;;;4.60;;
17953;SDS011;9102;53.548;9.926;2023-07-29T00:06:44;9.13;;;4.65;;
17953;SDS011;9102;53.548;9.926;2023-07-29T00:09:12;6.28;;;4.30;;
17953;SDS011;9102;53.548;9.926;2023-07-29T00:11:38;7.57;;;4.50;;
17953;SDS011;9102;53.548;9.926;2023-07-29T00:14:05;5.55;;;4.20;;
17953;SDS011;9102;53.548;9.926;2023-07-29T00:16:32;6.68;;;4.50;;
17953;SDS011;9102;53.548;9.926;2023-07-29T00:18:59;5.75;;;4.30;;
17953;SDS011;9102;53.548;9.926;2023-07-29T00:21:26;6.60;;;4.70;;
17953;SDS011;9102;53.548;9.926;2023-07-29T00:23:52;6.55;;;4.38;;
17953;SDS011;9102;53.548;9.926;2023-07-29T00:26:23;6.50;;;4.68;;
17953;SDS011;9102;53.548;9.926;2023-07-29T00:28:53;6.18;;;5.10;;
17953;SDS011;9102;53.548;9.926;2023-07-29T00:31:20;9.52;;;5.00;;
17953;SDS011;9102;53.548;9.926;2023-07-29T00:33:47;6.82;;;5.03;;
17953;SDS011;9102;53.548;9.926;2023-07-29T00:36:14;8.23;;;4.75;;
17953;SDS011;9102;53.548;9.926;2023-07-29T00:38:41;6.88;;;4.75;;
17953;SDS011;9102;53.548;9.926;2023-07-29T00:41:07;6.53;;;4.80;;
17953;SDS011;9102;53.548;9.926;2023-07-29T00:43:39;7.80;;;5.03;;
17953;SDS011;9102;53.548;9.926;2023-07-29T00:46:06;7.70;;;5.50;;
17953;SDS011;9102;53.548;9.926;2023-07-29T00:48:34;7.25;;;5.18;;
17953;SDS011;9102;53.548;9.926;2023-07-29T00:51:01;7.05;;;5.13;;
17953;SDS011;9102;53.548;9.926;2023-07-29T00:53:28;5.93;;;4.38;;
17953;SDS011;9102;53.548;9.926;2023-07-29T00:55:55;7.38;;;5.15;;
17953;SDS011;9102;53.548;9.926;2023-07-29T00:58:22;7.18;;;5.20;;
17953;SDS011;9102;53.548;9.926;2023-07-29T01:00:50;7.53;;;5.63;;
17953;SDS011;9102;53.548;9.926;2023-07-29T01:03:18;8.52;;;5.78;;
17953;SDS011;9102;53.548;9.926;2023-07-29T01:05:49;8.40;;;5.70;;
17953;SDS011;9102;53.548;9.926;2023-07-29T01:08:27;8.02;;;5.82;;
17953;SDS011;9102;53.548;9.926;2023-07-29T01:11:01;7.82;;;6.50;;
17953;SDS011;9102;53.548;9.926;2023-07-29T01:13:40;8.80;;;6.05;;
17953;SDS011;9102;53.548;9.926;2023-07-29T01:16:13;8.98;;;6.10;;
17953;SDS011;9102;53.548;9.926;2023-07-29T01:18:47;8.25;;;5.80;;
17953;SDS011;9102;53.548;9.926;2023-07-29T01:21:16;9.15;;;6.47;;
17953;SDS011;9102;53.548;9.926;2023-07-29T01:23:45;11.00;;;5.70;;
17953;SDS011;9102;53.548;9.926;2023-07-29T01:26:12;9.32;;;5.55;;
17953;SDS011;9102;53.548;9.926;2023-07-29T01:28:39;7.78;;;5.90;;
17953;SDS011;9102;53.548;9.926;2023-07-29T01:31:10;7.63;;;5.93;;
17953;SDS011;9102;53.548;9.926;2023-07-29T01:33:43;9.10;;;6.93;;
17953;SDS011;9102;53.548;9.926;2023-07-29T01:36:15;10.65;;;6.93;;
17953;SDS011;9102;53.548;9.926;2023-07-29T01:38:49;9.35;;;6.63;;
17953;SDS011;9102;53.548;9.926;2023-07-29T01:41:17;8.80;;;7.10;;
17953;SDS011;9102;53.548;9.926;2023-07-29T01:43:45;10.63;;;7.60;;
17953;SDS011;9102;53.548;9.926;2023-07-29T01:46:13;17.75;;;10.45;;
17953;SDS011;9102;53.548;9.926;2023-07-29T01:48:40;14.75;;;9.65;;
17953;SDS011;9102;53.548;9.926;2023-07-29T01:51:07;15.82;;;9.88;;
17953;SDS011;9102;53.548;9.926;2023-07-29T01:53:34;11.82;;;8.65;;
17953;SDS011;9102;53.548;9.926;2023-07-29T01:56:02;14.68;;;10.27;;
17953;SDS011;9102;53.548;9.926;2023-07-29T01:58:29;14.98;;;10.02;;
17953;SDS011;9102;53.548;9.926;2023-07-29T02:00:56;13.48;;;9.65;;
17953;SDS011;9102;53.548;9.926;2023-07-29T02:03:23;15.15;;;10.63;;
17953;SDS011;9102;53.548;9.926;2023-07-29T02:05:50;17.15;;;10.88;;
17953;SDS011;9102;53.548;9.926;2023-07-29T02:08:17;19.67;;;13.55;;
17953;SDS011;9102;53.548;9.926;2023-07-29T02:10:43;15.32;;;11.55;;
17953;SDS011;9102;53.548;9.926;2023-07-29T02:13:12;21.63;;;14.25;;
17953;SDS011;9102;53.548;9.926;2023-07-29T02:15:38;19.48;;;13.02;;
17953;SDS011;9102;53.548;9.926;2023-07-29T02:18:05;18.55;;;12.43;;
17953;SDS011;9102;53.548;9.926;2023-07-29T02:20:32;16.83;;;12.75;;
17953;SDS011;9102;53.548;9.926;2023-07-29T02:22:59;13.38;;;10.63;;
17953;SDS011;9102;53.548;9.926;2023-07-29T02:25:26;22.35;;;15.07;;
17953;SDS011;9102;53.548;9.926;2023-07-29T02:27:52;22.48;;;15.38;;
17953;SDS011;9102;53.548;9.926;2023-07-29T02:30:21;23.02;;;16.05;;
17953;SDS011;9102;53.548;9.926;2023-07-29T02:32:48;18.30;;;13.68;;
17953;SDS011;9102;53.548;9.926;2023-07-29T02:35:15;21.52;;;15.73;;
17953;SDS011;9102;53.548;9.926;2023-07-29T02:37:41;17.17;;;13.40;;
17953;SDS011;9102;53.548;9.926;2023-07-29T02:40:09;26.20;;;16.55;;
17953;SDS011;9102;53.548;9.926;2023-07-29T02:42:36;24.15;;;15.52;;
17953;SDS011;9102;53.548;9.926;2023-07-29T02:45:03;23.15;;;15.60;;
17953;SDS011;9102;53.548;9.926;2023-07-29T02:47:35;16.20;;;12.88;;
17953;SDS011;9102;53.548;9.926;2023-07-29T02:50:02;19.80;;;13.75;;
17953;SDS011;9102;53.548;9.926;2023-07-29T02:52:30;22.48;;;16.02;;
17953;SDS011;9102;53.548;9.926;2023-07-29T02:54:56;21.88;;;14.77;;
17953;SDS011;9102;53.548;9.926;2023-07-29T02:57:23;23.52;;;15.13;;
17953;SDS011;9102;53.548;9.926;2023-07-29T02:59:50;24.77;;;16.30;;
17953;SDS011;9102;53.548;9.926;2023-07-29T03:02:17;19.55;;;13.73;;
17953;SDS011;9102;53.548;9.926;2023-07-29T03:04:45;22.52;;;15.65;;
17953;SDS011;9102;53.548;9.926;2023-07-29T03:07:14;18.98;;;13.38;;
17953;SDS011;9102;53.548;9.926;2023-07-29T03:09:41;16.80;;;12.02;;
17953;SDS011;9102;53.548;9.926;2023-07-29T03:12:09;17.75;;;13.55;;
17953;SDS011;9102;53.548;9.926;2023-07-29T03:14:36;20.15;;;15.20;;
17953;SDS011;9102;53.548;9.926;2023-07-29T03:17:03;16.40;;;12.98;;
17953;SDS011;9102;53.548;9.926;2023-07-29T03:19:30;20.27;;;14.10;;
17953;SDS011;9102;53.548;9.926;2023-07-29T03:21:58;21.52;;;13.35;;
17953;SDS011;9102;53.548;9.926;2023-07-29T03:24:25;24.25;;;16.05;;
17953;SDS011;9102;53.548;9.926;2023-07-29T03:26:52;18.17;;;13.10;;
17953;SDS011;9102;53.548;9.926;2023-07-29T03:29:19;19.08;;;12.95;;
17953;SDS011;9102;53.548;9.926;2023-07-29T03:31:45;17.40;;;12.93;;
17953;SDS011;9102;53.548;9.926;2023-07-29T03:34:12;20.88;;;14.77;;
17953;SDS011;9102;53.548;9.926;2023-07-29T03:36:39;18.08;;;13.45;;
17953;SDS011;9102;53.548;9.926;2023-07-29T03:39:08;22.27;;;15.45;;
17953;SDS011;9102;53.548;9.926;2023-07-29T03:41:34;28.05;;;18.10;;
17953;SDS011;9102;53.548;9.926;2023-07-29T03:44:01;30.02;;;20.27;;
17953;SDS011;9102;53.548;9.926;2023-07-29T03:46:28;33.75;;;20.50;;
17953;SDS011;9102;53.548;9.926;2023-07-29T03:48:55;28.60;;;18.65;;
17953;SDS011;9102;53.548;9.926;2023-07-29T03:51:22;41.60;;;22.85;;
17953;SDS011;9102;53.548;9.926;2023-07-29T03:53:49;36.38;;;22.10;;
17953;SDS011;9102;53.548;9.926;2023-07-29T03:56:18;46.92;;;23.77;;
17953;SDS011;9102;53.548;9.926;2023-07-29T03:58:45;32.70;;;21.80;;
17953;SDS011;9102;53.548;9.926;2023-07-29T04:01:13;34.50;;;22.30;;
17953;SDS011;9102;53.548;9.926;2023-07-29T04:03:40;44.05;;;27.20;;
17953;SDS011;9102;53.548;9.926;2023-07-29T04:06:06;38.22;;;24.45;;
17953;SDS011;9102;53.548;9.926;2023-07-29T04:08:33;39.75;;;26.38;;
17953;SDS011;9102;53.548;9.926;2023-07-29T04:11:00;51.83;;;29.75;;
17953;SDS011;9102;53.548;9.926;2023-07-29T04:13:28;47.88;;;27.67;;
17953;SDS011;9102;53.548;9.926;2023-07-29T04:15:55;46.85;;;27.92;;
17953;SDS011;9102;53.548;9.926;2023-07-29T04:18:21;45.65;;;28.77;;
17953;SDS011;9102;53.548;9.926;2023-07-29T04:20:48;53.58;;;29.55;;
17953;SDS011;9102;53.548;9.926;2023-07-29T04:23:15;61.78;;;27.83;;
17953;SDS011;9102;53.548;9.926;2023-07-29T04:25:42;52.05;;;29.77;;
17953;SDS011;9102;53.548;9.926;2023-07-29T04:28:08;68.10;;;33.05;;
17953;SDS011;9102;53.548;9.926;2023-07-29T04:30:37;54.00;;;31.15;;
17953;SDS011;9102;53.548;9.926;2023-07-29T04:33:03;64.93;;;33.58;;
17953;SDS011;9102;53.548;9.926;2023-07-29T04:35:30;59.50;;;31.67;;
17953;SDS011;9102;53.548;9.926;2023-07-29T04:37:57;60.10;;;31.35;;
17953;SDS011;9102;53.548;9.926;2023-07-29T04:40:23;59.63;;;33.45;;
17953;SDS011;9102;53.548;9.926;2023-07-29T04:42:50;49.75;;;29.08;;
17953;SDS011;9102;53.548;9.926;2023-07-29T04:45:18;68.70;;;35.70;;
17953;SDS011;9102;53.548;9.926;2023-07-29T04:47:46;53.55;;;31.23;;
17953;SDS011;9102;53.548;9.926;2023-07-29T04:50:13;67.18;;;34.40;;
17953;SDS011;9102;53.548;9.926;2023-07-29T04:52:40;52.72;;;29.73;;
17953;SDS011;9102;53.548;9.926;2023-07-29T04:55:07;52.42;;;30.23;;
17953;SDS011;9102;53.548;9.926;2023-07-29T04:57:34;55.22;;;31.05;;
17953;SDS011;9102;53.548;9.926;2023-07-29T05:00:01;55.40;;;32.08;;
17953;SDS011;9102;53.548;9.926;2023-07-29T05:02:28;45.30;;;27.95;;
17953;SDS011;9102;53.548;9.926;2023-07-29T05:04:56;46.00;;;29.02;;
17953;SDS011;9102;53.548;9.926;2023-07-29T05:07:23;59.50;;;32.88;;
17953;SDS011;9102;53.548;9.926;2023-07-29T05:09:49;53.65;;;30.48;;
17953;SDS011;9102;53.548;9.926;2023-07-29T05:12:16;46.25;;;28.40;;
17953;SDS011;9102;53.548;9.926;2023-07-29T05:14:42;40.45;;;26.48;;
17953;SDS011;9102;53.548;9.926;2023-07-29T05:17:09;45.20;;;27.88;;
17953;SDS011;9102;53.548;9.926;2023-07-29T05:19:36;52.92;;;30.02;;
17953;SDS011;9102;53.548;9.926;2023-07-29T05:22:04;36.55;;;24.35;;
17953;SDS011;9102;53.548;9.926;2023-07-29T05:24:31;41.13;;;25.67;;
17953;SDS011;9102;53.548;9.926;2023-07-29T05:26:58;35.28;;;23.95;;
17953;SDS011;9102;53.548;9.926;2023-07-29T05:29:25;39.80;;;26.45;;
17953;SDS011;9102;53.548;9.926;2023-07-29T05:31:51;33.40;;;22.85;;
17953;SDS011;9102;53.548;9.926;2023-07-29T05:34:18;35.33;;;25.52;;
17953;SDS011;9102;53.548;9.926;2023-07-29T05:36:45;33.17;;;23.55;;
17953;SDS011;9102;53.548;9.926;2023-07-29T05:39:13;30.30;;;22.30;;
17953;SDS011;9102;53.548;9.926;2023-07-29T05:41:40;37.00;;;24.83;;
17953;SDS011;9102;53.548;9.926;2023-07-29T05:44:07;28.45;;;20.50;;
17953;SDS011;9102;53.548;9.926;2023-07-29T05:46:34;32.10;;;23.30;;
17953;SDS011;9102;53.548;9.926;2023-07-29T05:49:00;31.83;;;21.67;;
17953;SDS011;9102;53.548;9.926;2023-07-29T05:51:27;32.42;;;22.52;;
17953;SDS011;9102;53.548;9.926;2023-07-29T05:53:54;31.52;;;22.90;;
17953;SDS011;9102;53.548;9.926;2023-07-29T05:56:22;29.67;;;21.63;;
17953;SDS011;9102;53.548;9.926;2023-07-29T05:58:49;33.80;;;23.08;;
17953;SDS011;9102;53.548;9.926;2023-07-29T06:01:16;29.25;;;22.23;;
17953;SDS011;9102;53.548;9.926;2023-07-29T06:03:42;31.48;;;21.67;;
17953;SDS011;9102;53.548;9.926;2023-07-29T06:06:09;33.90;;;24.17;;
17953;SDS011;9102;53.548;9.926;2023-07-29T06:08:36;37.72;;;24.88;;
17953;SDS011;9102;53.548;9.926;2023-07-29T06:11:03;39.88;;;26.40;;
17953;SDS011;9102;53.548;9.926;2023-07-29T06:13:32;33.20;;;22.50;;
17953;SDS011;9102;53.548;9.926;2023-07-29T06:15:59;31.83;;;22.60;;
17953;SDS011;9102;53.548;9.926;2023-07-29T06:18:26;32.83;;;24.55;;
17953;SDS011;9102;53.548;9.926;2023-07-29T06:20:52;31.27;;;21.67;;
17953;SDS011;9102;53.548;9.926;2023-07-29T06:23:19;30.50;;;22.17;;
17953;SDS011;9102;53.548;9.926;2023-07-29T06:25:46;26.67;;;19.70;;
17953;SDS011;9102;53.548;9.926;2023-07-29T06:28:13;33.92;;;21.80;;
17953;SDS011;9102;53.548;9.926;2023-07-29T06:30:41;26.90;;;19.25;;
17953;SDS011;9102;53.548;9.926;2023-07-29T06:33:08;22.08;;;16.05;;
17953;SDS011;9102;53.548;9.926;2023-07-29T06:35:34;26.02;;;19.13;;
17953;SDS011;9102;53.548;9.926;2023-07-29T06:38:01;29.65;;;21.33;;
17953;SDS011;9102;53.548;9.926;2023-07-29T06:40:28;27.63;;;22.70;;
17953;SDS011;9102;53.548;9.926;2023-07-29T06:42:55;27.23;;;20.95;;
17953;SDS011;9102;53.548;9.926;2023-07-29T06:45:22;27.05;;;21.55;;
17953;SDS011;9102;53.548;9.926;2023-07-29T06:47:50;29.02;;;20.67;;
17953;SDS011;9102;53.548;9.926;2023-07-29T06:50:17;30.50;;;21.30;;
17953;SDS011;9102;53.548;9.926;2023-07-29T06:52:44;29.63;;;21.65;;
17953;SDS011;9102;53.548;9.926;2023-07-29T06:55:11;27.55;;;20.40;;
17953;SDS011;9102;53.548;9.926;2023-07-29T06:57:37;29.95;;;21.98;;
17953;SDS011;9102;53.548;9.926;2023-07-29T07:00:05;32.92;;;23.58;;
17953;SDS011;9102;53.548;9.926;2023-07-29T07:02:34;36.45;;;25.48;;
17953;SDS011;9102;53.548;9.926;2023-07-29T07:05:02;41.28;;;26.38;;
17953;SDS011;9102;53.548;9.926;2023-07-29T07:07:29;34.60;;;23.52;;
17953;SDS011;9102;53.548;9.926;2023-07-29T07:09:56;37.42;;;24.50;;
17953;SDS011;9102;53.548;9.926;2023-07-29T07:12:23;33.55;;;24.25;;
17953;SDS011;9102;53.548;9.926;2023-07-29T07:14:49;29.73;;;21.48;;
17953;SDS011;9102;53.548;9.926;2023-07-29T07:17:16;34.75;;;24.40;;
17953;SDS011;9102;53.548;9.926;2023-07-29T07:19:43;34.90;;;24.17;;
17953;SDS011;9102;53.548;9.926;2023-07-29T07:22:12;29.27;;;21.25;;
17953;SDS011;9102;53.548;9.926;2023-07-29T07:24:39;36.97;;;25.80;;
17953;SDS011;9102;53.548;9.926;2023-07-29T07:27:06;40.03;;;24.13;;
17953;SDS011;9102;53.548;9.926;2023-07-29T07:29:33;34.55;;;22.63;;
17953;SDS011;9102;53.548;9.926;2023-07-29T07:31:59;31.25;;;21.83;;
17953;SDS011;9102;53.548;9.926;2023-07-29T07:34:27;33.38;;;22.70;;
17953;SDS011;9102;53.548;9.926;2023-07-29T07:36:54;33.40;;;22.50;;
17953;SDS011;9102;53.548;9.926;2023-07-29T07:39:22;31.77;;;21.30;;
17953;SDS011;9102;53.548;9.926;2023-07-29T07:41:49;27.15;;;19.10;;
17953;SDS011;9102;53.548;9.926;2023-07-29T07:44:15;31.27;;;21.60;;
17953;SDS011;9102;53.548;9.926;2023-07-29T07:46:44;29.02;;;20.55;;
17953;SDS011;9102;53.548;9.926;2023-07-29T07:49:11;32.78;;;20.67;;
17953;SDS011;9102;53.548;9.926;2023-07-29T07:51:39;31.13;;;20.70;;
17953;SDS011;9102;53.548;9.926;2023-07-29T07:54:05;26.67;;;18.10;;
17953;SDS011;9102;53.548;9.926;2023-07-29T07:56:33;27.02;;;17.95;;
17953;SDS011;9102;53.548;9.926;2023-07-29T07:59:00;30.98;;;20.77;;
17953;SDS011;9102;53.548;9.926;2023-07-29T08:01:27;26.85;;;19.25;;
17953;SDS011;9102;53.548;9.926;2023-07-29T08:03:59;30.38;;;20.52;;
17953;SDS011;9102;53.548;9.926;2023-07-29T08:06:26;24.77;;;17.20;;
17953;SDS011;9102;53.548;9.926;2023-07-29T08:08:53;28.08;;;19.77;;
17953;SDS011;9102;53.548;9.926;2023-07-29T08:11:20;29.05;;;18.27;;
17953;SDS011;9102;53.548;9.926;2023-07-29T08:13:48;26.45;;;18.40;;
17953;SDS011;9102;53.548;9.926;2023-07-29T08:16:15;21.83;;;15.88;;
17953;SDS011;9102;53.548;9.926;2023-07-29T08:18:41;24.92;;;17.63;;
17953;SDS011;9102;53.548;9.926;2023-07-29T08:21:08;25.55;;;18.20;;
17953;SDS011;9102;53.548;9.926;2023-07-29T08:23:35;22.98;;;15.80;;
17953;SDS011;9102;53.548;9.926;2023-07-29T08:26:03;21.08;;;14.82;;
17953;SDS011;9102;53.548;9.926;2023-07-29T08:28:31;22.20;;;16.40;;
17953;SDS011;9102;53.548;9.926;2023-07-29T08:31:00;22.52;;;16.48;;
17953;SDS011;9102;53.548;9.926;2023-07-29T08:33:28;19.83;;;15.73;;
17953;SDS011;9102;53.548;9.926;2023-07-29T08:35:55;20.85;;;17.02;;
17953;SDS011;9102;53.548;9.926;2023-07-29T08:38:22;22.85;;;17.02;;
17953;SDS011;9102;53.548;9.926;2023-07-29T08:40:49;21.70;;;15.63;;
17953;SDS011;9102;53.548;9.926;2023-07-29T08:43:19;22.20;;;16.98;;
17953;SDS011;9102;53.548;9.926;2023-07-29T08:45:48;18.95;;;15.02;;
17953;SDS011;9102;53.548;9.926;2023-07-29T08:48:19;20.50;;;16.17;;
17953;SDS011;9102;53.548;9.926;2023-07-29T08:50:50;14.95;;;13.10;;
17953;SDS011;9102;53.548;9.926;2023-07-29T08:53:19;17.42;;;13.60;;
17953;SDS011;9102;53.548;9.926;2023-07-29T08:55:47;20.90;;;17.17;;
17953;SDS011;9102;53.548;9.926;2023-07-29T08:58:15;17.75;;;15.05;;
17953;SDS011;9102;53.548;9.926;2023-07-29T09:00:42;21.73;;;14.57;;
17953;SDS011;9102;53.548;9.926;2023-07-29T09:03:10;20.48;;;16.23;;
17953;SDS011;9102;53.548;9.926;2023-07-29T09:05:38;19.08;;;14.88;;
17953;SDS011;9102;53.548;9.926;2023-07-29T09:08:05;18.77;;;14.40;;
17953;SDS011;9102;53.548;9.926;2023-07-29T09:10:34;17.40;;;13.30;;
17953;SDS011;9102;53.548;9.926;2023-07-29T09:13:01;17.98;;;13.88;;
17953;SDS011;9102;53.548;9.926;2023-07-29T09:15:29;17.27;;;12.48;;
17953;SDS011;9102;53.548;9.926;2023-07-29T09:17:56;16.30;;;12.80;;
17953;SDS011;9102;53.548;9.926;2023-07-29T09:20:24;14.85;;;12.68;;
17953;SDS011;9102;53.548;9.926;2023-07-29T09:22:53;14.75;;;11.70;;
17953;SDS011;9102;53.548;9.926;2023-07-29T09:25:24;14.95;;;12.77;;
17953;SDS011;9102;53.548;9.926;2023-07-29T09:27:51;14.98;;;11.60;;
17953;SDS011;9102;53.548;9.926;2023-07-29T09:30:18;13.10;;;11.70;;
17953;SDS011;9102;53.548;9.926;2023-07-29T09:32:44;14.13;;;11.95;;
17953;SDS011;9102;53.548;9.926;2023-07-29T09:35:11;14.50;;;12.27;;
17953;SDS011;9102;53.548;9.926;2023-07-29T09:37:38;16.38;;;13.05;;
17953;SDS011;9102;53.548;9.926;2023-07-29T09:40:07;17.60;;;12.65;;
17953;SDS011;9102;53.548;9.926;2023-07-29T09:42:47;12.00;;;10.02;;
17953;SDS011;9102;53.548;9.926;2023-07-29T09:45:19;16.08;;;11.38;;
17953;SDS011;9102;53.548;9.926;2023-07-29T09:47:46;14.77;;;11.82;;
17953;SDS011;9102;53.548;9.926;2023-07-29T09:50:13;16.05;;;11.00;;
17953;SDS011;9102;53.548;9.926;2023-07-29T09:52:40;12.50;;;9.90;;
17953;SDS011;9102;53.548;9.926;2023-07-29T09:55:10;12.95;;;9.43;;
17953;SDS011;9102;53.548;9.926;2023-07-29T09:57:38;10.00;;;8.32;;
17953;SDS011;9102;53.548;9.926;2023-07-29T10:00:06;9.68;;;8.07;;
17953;SDS011;9102;53.548;9.926;2023-07-29T10:02:36;9.18;;;7.95;;
17953;SDS011;9102;53.548;9.926;2023-07-29T10:05:04;10.13;;;8.00;;
17953;SDS011;9102;53.548;9.926;2023-07-29T10:07:32;9.95;;;8.00;;
17953;SDS011;9102;53.548;9.926;2023-07-29T10:10:01;8.77;;;6.85;;
17953;SDS011;9102;53.548;9.926;2023-07-29T10:12:34;7.25;;;6.28;;
17953;SDS011;9102;53.548;9.926;2023-07-29T10:15:07;7.70;;;6.30;;
17953;SDS011;9102;53.548;9.926;2023-07-29T10:17:40;6.88;;;5.90;;
17953;SDS011;9102;53.548;9.926;2023-07-29T10:20:07;8.55;;;5.40;;
17953;SDS011;9102;53.548;9.926;2023-07-29T10:22:36;9.38;;;5.20;;
17953;SDS011;9102;53.548;9.926;2023-07-29T10:25:06;9.02;;;5.18;;
17953;SDS011;9102;53.548;9.926;2023-07-29T10:27:38;5.38;;;4.10;;
17953;SDS011;9102;53.548;9.926;2023-07-29T10:30:10;6.93;;;5.07;;
17953;SDS011;9102;53.548;9.926;2023-07-29T10:32:38;4.90;;;4.40;;
17953;SDS011;9102;53.548;9.926;2023-07-29T10:35:08;9.43;;;5.53;;
17953;SDS011;9102;53.548;9.926;2023-07-29T10:37:35;5.82;;;3.88;;
17953;SDS011;9102;53.548;9.926;2023-07-29T10:40:05;5.07;;;3.80;;
17953;SDS011;9102;53.548;9.926;2023-07-29T10:42:33;9.43;;;4.70;;
17953;SDS011;9102;53.548;9.926;2023-07-29T10:45:02;5.55;;;4.20;;
17953;SDS011;9102;53.548;9.926;2023-07-29T10:47:44;5.50;;;3.95;;
17953;SDS011;9102;53.548;9.926;2023-07-29T10:50:16;6.22;;;3.88;;
17953;SDS011;9102;53.548;9.926;2023-07-29T10:52:46;4.80;;;3.25;;
17953;SDS011;9102;53.548;9.926;2023-07-29T10:55:28;4.72;;;3.55;;
17953;SDS011;9102;53.548;9.926;2023-07-29T10:58:04;5.35;;;3.20;;
17953;SDS011;9102;53.548;9.926;2023-07-29T11:00:39;4.85;;;3.10;;
17953;SDS011;9102;53.548;9.926;2023-07-29T11:03:08;3.83;;;3.00;;
17953;SDS011;9102;53.548;9.926;2023-07-29T11:08:30;2.70;;;2.38;;
17953;SDS011;9102;53.548;9.926;2023-07-29T11:11:08;3.03;;;2.40;;
17953;SDS011;9102;53.548;9.926;2023-07-29T11:13:38;3.15;;;2.55;;
17953;SDS011;9102;53.548;9.926;2023-07-29T11:16:06;2.85;;;2.20;;
17953;SDS011;9102;53.548;9.926;2023-07-29T11:18:36;2.75;;;2.17;;
17953;SDS011;9102;53.548;9.926;2023-07-29T11:21:04;2.30;;;2.10;;
17953;SDS011;9102;53.548;9.926;2023-07-29T11:23:32;6.75;;;2.97;;
17953;SDS011;9102;53.548;9.926;2023-07-29T11:26:00;3.35;;;2.35;;
17953;SDS011;9102;53.548;9.926;2023-07-29T11:28:27;5.47;;;2.60;;
17953;SDS011;9102;53.548;9.926;2023-07-29T11:30:55;4.22;;;2.47;;
17953;SDS011;9102;53.548;9.926;2023-07-29T11:33:25;2.10;;;1.70;;
17953;SDS011;9102;53.548;9.926;2023-07-29T11:35:53;2.17;;;1.70;;
17953;SDS011;9102;53.548;9.926;2023-07-29T11:38:21;3.42;;;2.40;;
17953;SDS011;9102;53.548;9.926;2023-07-29T11:40:55;4.75;;;2.60;;
17953;SDS011;9102;53.548;9.926;2023-07-29T11:43:22;3.15;;;2.45;;
17953;SDS011;9102;53.548;9.926;2023-07-29T11:45:50;3.83;;;2.13;;
17953;SDS011;9102;53.548;9.926;2023-07-29T11:48:28;4.15;;;2.65;;
17953;SDS011;9102;53.548;9.926;2023-07-29T11:50:54;6.45;;;2.60;;
17953;SDS011;9102;53.548;9.926;2023-07-29T11:53:21;3.33;;;2.10;;
17953;SDS011;9102;53.548;9.926;2023-07-29T11:55:49;3.00;;;2.38;;
17953;SDS011;9102;53.548;9.926;2023-07-29T11:58:18;2.63;;;1.92;;
17953;SDS011;9102;53.548;9.926;2023-07-29T12:00:44;3.60;;;2.50;;
17953;SDS011;9102;53.548;9.926;2023-07-29T12:03:12;4.13;;;2.42;;
17953;SDS011;9102;53.548;9.926;2023-07-29T12:05:41;2.65;;;2.15;;
17953;SDS011;9102;53.548;9.926;2023-07-29T12:08:08;5.70;;;2.30;;
17953;SDS011;9102;53.548;9.926;2023-07-29T12:10:35;3.22;;;2.10;;
17953;SDS011;9102;53.548;9.926;2023-07-29T12:13:03;2.60;;;2.10;;
17953;SDS011;9102;53.548;9.926;2023-07-29T12:15:30;2.40;;;2.20;;
17953;SDS011;9102;53.548;9.926;2023-07-29T12:17:57;3.00;;;2.13;;
17953;SDS011;9102;53.548;9.926;2023-07-29T12:20:24;2.80;;;1.90;;
17953;SDS011;9102;53.548;9.926;2023-07-29T12:22:53;2.70;;;1.80;;
17953;SDS011;9102;53.548;9.926;2023-07-29T12:25:21;3.65;;;2.10;;
17953;SDS011;9102;53.548;9.926;2023-07-29T12:27:48;3.90;;;2.40;;
17953;SDS011;9102;53.548;9.926;2023-07-29T12:30:15;2.78;;;1.90;;
17953;SDS011;9102;53.548;9.926;2023-07-29T12:32:43;2.78;;;2.05;;
17953;SDS011;9102;53.548;9.926;2023-07-29T12:35:11;5.38;;;1.70;;
17953;SDS011;9102;53.548;9.926;2023-07-29T12:37:38;2.50;;;1.50;;
17953;SDS011;9102;53.548;9.926;2023-07-29T12:40:19;2.67;;;1.80;;
17953;SDS011;9102;53.548;9.926;2023-07-29T12:42:47;2.58;;;1.67;;
17953;SDS011;9102;53.548;9.926;2023-07-29T12:45:15;2.08;;;1.52;;
17953;SDS011;9102;53.548;9.926;2023-07-29T12:47:43;1.70;;;1.20;;
17953;SDS011;9102;53.548;9.926;2023-07-29T12:50:10;3.67;;;1.80;;
17953;SDS011;9102;53.548;9.926;2023-07-29T12:52:37;3.55;;;1.50;;
17953;SDS011;9102;53.548;9.926;2023-07-29T12:55:04;2.08;;;1.40;;
17953;SDS011;9102;53.548;9.926;2023-07-29T12:57:34;1.63;;;1.35;;
17953;SDS011;9102;53.548;9.926;2023-07-29T13:00:02;2.97;;;1.25;;
17953;SDS011;9102;53.548;9.926;2023-07-29T13:02:29;1.67;;;1.58;;
17953;SDS011;9102;53.548;9.926;2023-07-29T13:04:57;3.55;;;1.45;;
17953;SDS011;9102;53.548;9.926;2023-07-29T13:07:23;5.75;;;1.65;;
17953;SDS011;9102;53.548;9.926;2023-07-29T13:09:50;3.10;;;1.73;;
17953;SDS011;9102;53.548;9.926;2023-07-29T13:12:17;1.48;;;1.38;;
17953;SDS011;9102;53.548;9.926;2023-07-29T13:14:45;1.95;;;1.40;;
17953;SDS011;9102;53.548;9.926;2023-07-29T13:17:12;3.05;;;1.85;;
17953;SDS011;9102;53.548;9.926;2023-07-29T13:19:39;2.13;;;1.50;;
17953;SDS011;9102;53.548;9.926;2023-07-29T13:22:05;2.33;;;1.60;;
17953;SDS011;9102;53.548;9.926;2023-07-29T13:24:32;1.98;;;1.55;;
17953;SDS011;9102;53.548;9.926;2023-07-29T13:26:59;1.60;;;1.30;;
17953;SDS011;9102;53.548;9.926;2023-07-29T13:29:25;3.10;;;1.30;;
17953;SDS011;9102;53.548;9.926;2023-07-29T13:31:54;2.83;;;1.50;;
17953;SDS011;9102;53.548;9.926;2023-07-29T13:34:20;1.95;;;1.55;;
17953;SDS011;9102;53.548;9.926;2023-07-29T13:36:47;2.78;;;1.20;;
17953;SDS011;9102;53.548;9.926;2023-07-29T13:39:14;2.33;;;1.30;;
17953;SDS011;9102;53.548;9.926;2023-07-29T13:41:41;2.75;;;1.33;;
17953;SDS011;9102;53.548;9.926;2023-07-29T13:44:08;2.80;;;1.45;;
17953;SDS011;9102;53.548;9.926;2023-07-29T13:46:35;1.70;;;1.20;;
17953;SDS011;9102;53.548;9.926;2023-07-29T13:49:03;3.10;;;1.40;;
17953;SDS011;9102;53.548;9.926;2023-07-29T13:51:29;3.38;;;1.50;;
17953;SDS011;9102;53.548;9.926;2023-07-29T13:53:56;2.63;;;1.45;;
17953;SDS011;9102;53.548;9.926;2023-07-29T13:56:23;3.83;;;1.85;;
17953;SDS011;9102;53.548;9.926;2023-07-29T13:58:50;2.50;;;1.60;;
17953;SDS011;9102;53.548;9.926;2023-07-29T14:01:17;7.72;;;4.18;;
17953;SDS011;9102;53.548;9.926;2023-07-29T14:03:44;2.08;;;1.55;;
17953;SDS011;9102;53.548;9.926;2023-07-29T14:06:12;2.95;;;1.60;;
17953;SDS011;9102;53.548;9.926;2023-07-29T14:08:39;3.17;;;1.60;;
17953;SDS011;9102;53.548;9.926;2023-07-29T14:11:06;2.92;;;1.50;;
17953;SDS011;9102;53.548;9.926;2023-07-29T14:13:33;3.33;;;1.40;;
17953;SDS011;9102;53.548;9.926;2023-07-29T14:16:00;2.85;;;1.70;;
17953;SDS011;9102;53.548;9.926;2023-07-29T14:18:27;2.42;;;1.70;;
17953;SDS011;9102;53.548;9.926;2023-07-29T14:20:54;1.63;;;1.48;;
17953;SDS011;9102;53.548;9.926;2023-07-29T14:23:22;7.18;;;1.55;;
17953;SDS011;9102;53.548;9.926;2023-07-29T14:25:49;4.15;;;2.90;;
17953;SDS011;9102;53.548;9.926;2023-07-29T14:28:16;3.78;;;2.58;;
17953;SDS011;9102;53.548;9.926;2023-07-29T14:30:43;3.13;;;1.73;;
17953;SDS011;9102;53.548;9.926;2023-07-29T14:33:10;4.03;;;1.80;;
17953;SDS011;9102;53.548;9.926;2023-07-29T14:35:36;2.63;;;1.70;;
17953;SDS011;9102;53.548;9.926;2023-07-29T14:38:03;1.80;;;1.20;;
17953;SDS011;9102;53.548;9.926;2023-07-29T14:40:32;5.78;;;1.55;;
17953;SDS011;9102;53.548;9.926;2023-07-29T14:42:58;2.42;;;1.77;;
17953;SDS011;9102;53.548;9.926;2023-07-29T14:45:25;3.33;;;1.60;;
17953;SDS011;9102;53.548;9.926;2023-07-29T14:47:52;3.78;;;1.60;;
17953;SDS011;9102;53.548;9.926;2023-07-29T14:50:19;6.30;;;2.30;;
17953;SDS011;9102;53.548;9.926;2023-07-29T14:52:46;4.72;;;1.60;;